sensor_id;sensor_type;location;lat;lon;timestamp;P1;durP1;ratioP1;P2;durP2;ratioP2
60088;SDS011;45961;53.574;55.878;2022-08-03T15:25:04;12.20;;;4.57;;
60088;SDS011;45961;53.574;55.878;2022-08-03T15:26:05;17.63;;;4.57;;
60088;SDS011;45961;53.574;55.878;2022-08-03T15:27:06;7.90;;;4.28;;
60088;SDS011;45961;53.574;55.878;2022-08-03T15:28:07;10.50;;;4.72;;
60088;SDS011;45961;53.574;55.878;2022-08-03T15:29:08;8.93;;;4.32;;
60088;SDS011;45961;53.574;55.878;2022-08-03T15:30:10;9.82;;;5.25;;
60088;SDS011;45961;53.574;55.878;2022-08-03T15:31:11;13.48;;;5.30;;
60088;SDS011;45961;53.574;55.878;2022-08-03T15:32:12;8.85;;;5.55;;
60088;SDS011;45961;53.574;55.878;2022-08-03T15:33:13;10.88;;;6.15;;
60088;SDS011;45961;53.574;55.878;2022-08-03T15:34:14;11.48;;;5.68;;
60088;SDS011;45961;53.574;55.878;2022-08-03T15:35:15;12.85;;;6.63;;
60088;SDS011;45961;53.574;55.878;2022-08-03T15:36:16;7.18;;;5.22;;
60088;SDS011;45961;53.574;55.878;2022-08-03T15:37:18;8.40;;;6.40;;
60088;SDS011;45961;53.574;55.878;2022-08-03T15:38:20;65.22;;;49.40;;
60088;SDS011;45961;53.574;55.878;2022-08-03T15:39:24;129.10;;;104.85;;
60088;SDS011;45961;53.574;55.878;2022-08-03T15:40:28;112.97;;;94.47;;
60088;SDS011;45961;53.574;55.878;2022-08-03T15:41:29;107.00;;;92.72;;
60088;SDS011;45961;53.574;55.878;2022-08-03T15:42:31;85.20;;;74.70;;
60088;SDS011;45961;53.574;55.878;2022-08-03T15:43:33;52.35;;;42.88;;
60088;SDS011;45961;53.574;55.878;2022-08-03T15:44:34;65.40;;;56.60;;
60088;SDS011;45961;53.574;55.878;2022-08-03T15:45:35;91.35;;;80.90;;
60088;SDS011;45961;53.574;55.878;2022-08-03T15:46:36;103.85;;;84.28;;
60088;SDS011;45961;53.574;55.878;2022-08-03T15:47:37;69.55;;;60.35;;
60088;SDS011;45961;53.574;55.878;2022-08-03T15:49:40;53.60;;;47.20;;
60088;SDS011;45961;53.574;55.878;2022-08-03T15:50:41;36.45;;;31.45;;
60088;SDS011;45961;53.574;55.878;2022-08-03T15:51:43;30.85;;;26.50;;
60088;SDS011;45961;53.574;55.878;2022-08-03T15:52:44;27.45;;;24.52;;
60088;SDS011;45961;53.574;55.878;2022-08-03T15:53:45;31.33;;;28.20;;
60088;SDS011;45961;53.574;55.878;2022-08-03T15:54:46;22.23;;;20.23;;
60088;SDS011;45961;53.574;55.878;2022-08-03T15:55:47;17.70;;;15.95;;
60088;SDS011;45961;53.574;55.878;2022-08-03T15:56:48;23.50;;;21.55;;
60088;SDS011;45961;53.574;55.878;2022-08-03T15:57:49;17.67;;;13.18;;
60088;SDS011;45961;53.574;55.878;2022-08-03T15:58:50;15.07;;;13.18;;
60088;SDS011;45961;53.574;55.878;2022-08-03T15:59:51;16.17;;;13.90;;
60088;SDS011;45961;53.574;55.878;2022-08-03T16:00:52;12.07;;;10.60;;
60088;SDS011;45961;53.574;55.878;2022-08-03T16:01:53;8.82;;;7.93;;
60088;SDS011;45961;53.574;55.878;2022-08-03T16:02:56;8.80;;;7.30;;
60088;SDS011;45961;53.574;55.878;2022-08-03T16:03:58;11.13;;;6.75;;
60088;SDS011;45961;53.574;55.878;2022-08-03T16:04:59;11.27;;;6.60;;
60088;SDS011;45961;53.574;55.878;2022-08-03T16:06:04;10.40;;;5.95;;
60088;SDS011;45961;53.574;55.878;2022-08-03T16:07:06;8.55;;;5.32;;
60088;SDS011;45961;53.574;55.878;2022-08-03T16:08:08;10.77;;;5.45;;
60088;SDS011;45961;53.574;55.878;2022-08-03T16:09:10;11.38;;;5.55;;
60088;SDS011;45961;53.574;55.878;2022-08-03T16:10:12;11.85;;;5.15;;
60088;SDS011;45961;53.574;55.878;2022-08-03T16:11:16;8.60;;;4.85;;
60088;SDS011;45961;53.574;55.878;2022-08-03T16:12:18;9.50;;;4.90;;
60088;SDS011;45961;53.574;55.878;2022-08-03T16:13:19;7.32;;;4.55;;
60088;SDS011;45961;53.574;55.878;2022-08-03T16:14:20;7.68;;;5.13;;
60088;SDS011;45961;53.574;55.878;2022-08-03T16:15:21;9.65;;;5.40;;
60088;SDS011;45961;53.574;55.878;2022-08-03T16:16:22;8.70;;;5.85;;
60088;SDS011;45961;53.574;55.878;2022-08-03T16:17:23;7.97;;;6.22;;
60088;SDS011;45961;53.574;55.878;2022-08-03T16:19:25;9.33;;;6.47;;
60088;SDS011;45961;53.574;55.878;2022-08-03T16:20:27;13.73;;;6.82;;
60088;SDS011;45961;53.574;55.878;2022-08-03T16:22:29;19.23;;;7.37;;
60088;SDS011;45961;53.574;55.878;2022-08-03T16:23:30;16.50;;;9.45;;
60088;SDS011;45961;53.574;55.878;2022-08-03T16:24:31;13.68;;;9.05;;
60088;SDS011;45961;53.574;55.878;2022-08-03T16:25:32;12.77;;;7.05;;
60088;SDS011;45961;53.574;55.878;2022-08-03T16:26:33;18.35;;;7.43;;
60088;SDS011;45961;53.574;55.878;2022-08-03T16:27:34;20.65;;;9.65;;
60088;SDS011;45961;53.574;55.878;2022-08-03T16:28:35;13.68;;;8.85;;
60088;SDS011;45961;53.574;55.878;2022-08-03T16:29:38;11.38;;;8.57;;
60088;SDS011;45961;53.574;55.878;2022-08-03T16:30:39;18.67;;;9.13;;
60088;SDS011;45961;53.574;55.878;2022-08-03T16:31:42;11.82;;;9.13;;
60088;SDS011;45961;53.574;55.878;2022-08-03T16:32:43;14.23;;;9.07;;
60088;SDS011;45961;53.574;55.878;2022-08-03T16:35:47;12.77;;;8.77;;
60088;SDS011;45961;53.574;55.878;2022-08-03T16:36:49;18.17;;;10.13;;
60088;SDS011;45961;53.574;55.878;2022-08-03T16:37:50;18.52;;;10.80;;
60088;SDS011;45961;53.574;55.878;2022-08-03T16:38:51;26.65;;;13.63;;
60088;SDS011;45961;53.574;55.878;2022-08-03T16:39:52;23.67;;;13.10;;
60088;SDS011;45961;53.574;55.878;2022-08-03T16:40:53;24.02;;;13.27;;
60088;SDS011;45961;53.574;55.878;2022-08-03T16:41:56;22.08;;;13.65;;
60088;SDS011;45961;53.574;55.878;2022-08-03T16:42:57;23.05;;;13.00;;
60088;SDS011;45961;53.574;55.878;2022-08-03T16:43:58;25.07;;;13.80;;
60088;SDS011;45961;53.574;55.878;2022-08-03T16:45:00;23.63;;;13.07;;
60088;SDS011;45961;53.574;55.878;2022-08-03T16:46:01;19.40;;;11.02;;
60088;SDS011;45961;53.574;55.878;2022-08-03T16:48:03;16.15;;;9.48;;
60088;SDS011;45961;53.574;55.878;2022-08-03T16:49:04;14.43;;;8.98;;
60088;SDS011;45961;53.574;55.878;2022-08-03T16:50:05;14.43;;;8.30;;
60088;SDS011;45961;53.574;55.878;2022-08-03T16:51:07;12.52;;;8.73;;
60088;SDS011;45961;53.574;55.878;2022-08-03T16:52:08;19.13;;;7.95;;
60088;SDS011;45961;53.574;55.878;2022-08-03T16:53:09;13.38;;;7.35;;
60088;SDS011;45961;53.574;55.878;2022-08-03T16:54:11;20.45;;;7.47;;
60088;SDS011;45961;53.574;55.878;2022-08-03T16:56:15;11.50;;;6.38;;
60088;SDS011;45961;53.574;55.878;2022-08-03T16:57:16;12.85;;;7.18;;
60088;SDS011;45961;53.574;55.878;2022-08-03T16:58:17;14.93;;;6.40;;
60088;SDS011;45961;53.574;55.878;2022-08-03T16:59:18;11.23;;;6.00;;
60088;SDS011;45961;53.574;55.878;2022-08-03T17:00:19;11.65;;;5.93;;
60088;SDS011;45961;53.574;55.878;2022-08-03T17:01:20;12.80;;;5.70;;
60088;SDS011;45961;53.574;55.878;2022-08-03T17:03:27;18.95;;;6.88;;
60088;SDS011;45961;53.574;55.878;2022-08-03T17:04:30;9.50;;;6.63;;
60088;SDS011;45961;53.574;55.878;2022-08-03T17:06:35;12.73;;;6.30;;
60088;SDS011;45961;53.574;55.878;2022-08-03T17:07:37;12.60;;;6.15;;
60088;SDS011;45961;53.574;55.878;2022-08-03T17:08:40;12.63;;;5.72;;
60088;SDS011;45961;53.574;55.878;2022-08-03T17:09:41;9.30;;;5.90;;
60088;SDS011;45961;53.574;55.878;2022-08-03T17:10:43;9.95;;;5.95;;
60088;SDS011;45961;53.574;55.878;2022-08-03T17:12:46;9.25;;;4.95;;
60088;SDS011;45961;53.574;55.878;2022-08-03T17:13:48;8.40;;;4.60;;
60088;SDS011;45961;53.574;55.878;2022-08-03T17:14:50;8.73;;;5.30;;
60088;SDS011;45961;53.574;55.878;2022-08-03T17:15:52;8.15;;;5.18;;
60088;SDS011;45961;53.574;55.878;2022-08-03T17:16:54;9.77;;;4.85;;
60088;SDS011;45961;53.574;55.878;2022-08-03T17:18:01;8.50;;;4.85;;
60088;SDS011;45961;53.574;55.878;2022-08-03T17:19:06;13.98;;;5.57;;
60088;SDS011;45961;53.574;55.878;2022-08-03T17:20:08;8.32;;;4.85;;
60088;SDS011;45961;53.574;55.878;2022-08-03T17:21:14;12.05;;;5.55;;
60088;SDS011;45961;53.574;55.878;2022-08-03T17:22:19;13.98;;;5.57;;
60088;SDS011;45961;53.574;55.878;2022-08-03T17:23:37;13.05;;;5.28;;
60088;SDS011;45961;53.574;55.878;2022-08-03T17:24:44;15.05;;;6.10;;
60088;SDS011;45961;53.574;55.878;2022-08-03T17:25:47;14.85;;;6.00;;
60088;SDS011;45961;53.574;55.878;2022-08-03T17:26:48;12.63;;;5.38;;
60088;SDS011;45961;53.574;55.878;2022-08-03T17:27:52;12.13;;;5.95;;
60088;SDS011;45961;53.574;55.878;2022-08-03T17:28:55;13.05;;;5.70;;
60088;SDS011;45961;53.574;55.878;2022-08-03T17:30:06;7.30;;;5.03;;
60088;SDS011;45961;53.574;55.878;2022-08-03T17:31:11;10.02;;;5.53;;
60088;SDS011;45961;53.574;55.878;2022-08-03T17:32:15;8.50;;;5.72;;
60088;SDS011;45961;53.574;55.878;2022-08-03T17:33:18;7.82;;;5.90;;
60088;SDS011;45961;53.574;55.878;2022-08-03T17:34:20;7.82;;;5.82;;
60088;SDS011;45961;53.574;55.878;2022-08-03T17:35:22;10.13;;;5.70;;
60088;SDS011;45961;53.574;55.878;2022-08-03T17:36:23;10.85;;;6.45;;
60088;SDS011;45961;53.574;55.878;2022-08-03T17:37:24;10.77;;;6.38;;
60088;SDS011;45961;53.574;55.878;2022-08-03T17:38:26;10.13;;;6.18;;
60088;SDS011;45961;53.574;55.878;2022-08-03T17:39:27;10.70;;;6.15;;
60088;SDS011;45961;53.574;55.878;2022-08-03T17:40:32;6.68;;;5.88;;
60088;SDS011;45961;53.574;55.878;2022-08-03T17:41:33;13.13;;;6.05;;
60088;SDS011;45961;53.574;55.878;2022-08-03T17:42:37;11.27;;;6.45;;
60088;SDS011;45961;53.574;55.878;2022-08-03T17:43:42;9.32;;;7.20;;
60088;SDS011;45961;53.574;55.878;2022-08-03T17:44:46;9.15;;;7.55;;
60088;SDS011;45961;53.574;55.878;2022-08-03T17:45:47;10.95;;;7.35;;
60088;SDS011;45961;53.574;55.878;2022-08-03T17:46:49;7.63;;;6.45;;
60088;SDS011;45961;53.574;55.878;2022-08-03T17:47:50;8.45;;;6.32;;
60088;SDS011;45961;53.574;55.878;2022-08-03T17:48:51;11.25;;;7.22;;
60088;SDS011;45961;53.574;55.878;2022-08-03T17:49:53;10.10;;;7.20;;
60088;SDS011;45961;53.574;55.878;2022-08-03T17:50:56;10.95;;;7.00;;
60088;SDS011;45961;53.574;55.878;2022-08-03T17:52:06;15.90;;;7.43;;
60088;SDS011;45961;53.574;55.878;2022-08-03T17:53:15;10.10;;;7.18;;
60088;SDS011;45961;53.574;55.878;2022-08-03T17:55:28;10.63;;;6.07;;
60088;SDS011;45961;53.574;55.878;2022-08-03T17:57:52;6.80;;;5.40;;
60088;SDS011;45961;53.574;55.878;2022-08-03T17:59:03;9.23;;;5.82;;
60088;SDS011;45961;53.574;55.878;2022-08-03T18:00:07;7.63;;;5.00;;
60088;SDS011;45961;53.574;55.878;2022-08-03T18:02:15;8.93;;;5.07;;
60088;SDS011;45961;53.574;55.878;2022-08-03T18:04:29;46.70;;;8.05;;
60088;SDS011;45961;53.574;55.878;2022-08-03T18:05:33;28.80;;;6.88;;
60088;SDS011;45961;53.574;55.878;2022-08-03T18:06:37;35.95;;;9.27;;
60088;SDS011;45961;53.574;55.878;2022-08-03T18:07:44;19.27;;;6.53;;
60088;SDS011;45961;53.574;55.878;2022-08-03T18:08:49;15.02;;;6.95;;
60088;SDS011;45961;53.574;55.878;2022-08-03T18:09:54;14.20;;;6.93;;
60088;SDS011;45961;53.574;55.878;2022-08-03T18:11:03;11.82;;;6.65;;
60088;SDS011;45961;53.574;55.878;2022-08-03T18:12:05;11.77;;;7.30;;
60088;SDS011;45961;53.574;55.878;2022-08-03T18:13:22;11.23;;;7.43;;
60088;SDS011;45961;53.574;55.878;2022-08-03T18:14:28;11.50;;;7.20;;
60088;SDS011;45961;53.574;55.878;2022-08-03T18:17:00;12.25;;;7.80;;
60088;SDS011;45961;53.574;55.878;2022-08-03T18:18:06;11.50;;;7.32;;
60088;SDS011;45961;53.574;55.878;2022-08-03T18:19:07;11.88;;;7.40;;
60088;SDS011;45961;53.574;55.878;2022-08-03T18:20:09;10.90;;;7.15;;
60088;SDS011;45961;53.574;55.878;2022-08-03T18:21:10;11.43;;;6.65;;
60088;SDS011;45961;53.574;55.878;2022-08-03T18:22:12;11.07;;;6.25;;
60088;SDS011;45961;53.574;55.878;2022-08-03T18:24:14;12.02;;;6.82;;
60088;SDS011;45961;53.574;55.878;2022-08-03T18:25:18;9.55;;;6.63;;
60088;SDS011;45961;53.574;55.878;2022-08-03T18:26:21;11.25;;;6.57;;
60088;SDS011;45961;53.574;55.878;2022-08-03T18:27:23;12.70;;;7.15;;
60088;SDS011;45961;53.574;55.878;2022-08-03T18:28:27;14.10;;;6.30;;
60088;SDS011;45961;53.574;55.878;2022-08-03T18:29:30;11.75;;;6.60;;
60088;SDS011;45961;53.574;55.878;2022-08-03T18:30:33;10.02;;;6.10;;
60088;SDS011;45961;53.574;55.878;2022-08-03T18:31:35;9.63;;;6.75;;
60088;SDS011;45961;53.574;55.878;2022-08-03T18:32:36;13.43;;;6.40;;
60088;SDS011;45961;53.574;55.878;2022-08-03T18:34:39;12.05;;;6.53;;
60088;SDS011;45961;53.574;55.878;2022-08-03T18:35:44;11.10;;;6.60;;
60088;SDS011;45961;53.574;55.878;2022-08-03T18:36:46;10.15;;;7.05;;
60088;SDS011;45961;53.574;55.878;2022-08-03T18:37:48;9.52;;;6.25;;
60088;SDS011;45961;53.574;55.878;2022-08-03T18:38:50;16.73;;;7.63;;
60088;SDS011;45961;53.574;55.878;2022-08-03T18:39:55;12.50;;;7.85;;
60088;SDS011;45961;53.574;55.878;2022-08-03T18:40:57;18.23;;;8.45;;
60088;SDS011;45961;53.574;55.878;2022-08-03T18:41:58;16.80;;;9.10;;
60088;SDS011;45961;53.574;55.878;2022-08-03T18:43:00;15.73;;;10.18;;
60088;SDS011;45961;53.574;55.878;2022-08-03T18:44:03;16.17;;;9.55;;
60088;SDS011;45961;53.574;55.878;2022-08-03T18:45:05;14.05;;;10.68;;
60088;SDS011;45961;53.574;55.878;2022-08-03T18:46:19;13.07;;;9.90;;
60088;SDS011;45961;53.574;55.878;2022-08-03T18:47:41;12.45;;;10.40;;
60088;SDS011;45961;53.574;55.878;2022-08-03T18:50:07;14.82;;;11.55;;
60088;SDS011;45961;53.574;55.878;2022-08-03T18:51:21;17.73;;;11.82;;
60088;SDS011;45961;53.574;55.878;2022-08-03T18:52:33;16.27;;;12.32;;
60088;SDS011;45961;53.574;55.878;2022-08-03T18:54:46;13.38;;;11.70;;
60088;SDS011;45961;53.574;55.878;2022-08-03T18:55:55;14.38;;;11.90;;
60088;SDS011;45961;53.574;55.878;2022-08-03T18:57:03;13.50;;;11.80;;
60088;SDS011;45961;53.574;55.878;2022-08-03T18:58:08;16.75;;;11.15;;
60088;SDS011;45961;53.574;55.878;2022-08-03T18:59:29;13.52;;;11.15;;
60088;SDS011;45961;53.574;55.878;2022-08-03T19:00:34;15.15;;;11.23;;
60088;SDS011;45961;53.574;55.878;2022-08-03T19:02:00;14.52;;;10.73;;
60088;SDS011;45961;53.574;55.878;2022-08-03T19:03:17;12.00;;;9.75;;
60088;SDS011;45961;53.574;55.878;2022-08-03T19:04:24;15.98;;;10.52;;
60088;SDS011;45961;53.574;55.878;2022-08-03T19:05:40;13.35;;;10.25;;
60088;SDS011;45961;53.574;55.878;2022-08-03T19:06:43;15.88;;;10.02;;
60088;SDS011;45961;53.574;55.878;2022-08-03T19:07:51;12.63;;;10.35;;
60088;SDS011;45961;53.574;55.878;2022-08-03T19:09:06;12.13;;;9.63;;
60088;SDS011;45961;53.574;55.878;2022-08-03T19:10:16;15.23;;;9.13;;
60088;SDS011;45961;53.574;55.878;2022-08-03T19:11:22;12.23;;;9.27;;
60088;SDS011;45961;53.574;55.878;2022-08-03T19:13:43;10.00;;;8.90;;
60088;SDS011;45961;53.574;55.878;2022-08-03T19:14:52;10.88;;;8.27;;
60088;SDS011;45961;53.574;55.878;2022-08-03T19:15:56;11.93;;;8.80;;
60088;SDS011;45961;53.574;55.878;2022-08-03T19:17:04;12.38;;;7.97;;
60088;SDS011;45961;53.574;55.878;2022-08-03T19:18:08;11.57;;;7.85;;
60088;SDS011;45961;53.574;55.878;2022-08-03T19:19:10;8.25;;;7.10;;
60088;SDS011;45961;53.574;55.878;2022-08-03T19:21:13;14.88;;;7.68;;
60088;SDS011;45961;53.574;55.878;2022-08-03T19:22:15;7.90;;;7.05;;
60088;SDS011;45961;53.574;55.878;2022-08-03T19:23:23;9.85;;;7.28;;
60088;SDS011;45961;53.574;55.878;2022-08-03T19:24:27;10.30;;;6.82;;
60088;SDS011;45961;53.574;55.878;2022-08-03T19:25:30;7.57;;;6.15;;
60088;SDS011;45961;53.574;55.878;2022-08-03T19:26:33;9.65;;;6.05;;
60088;SDS011;45961;53.574;55.878;2022-08-03T19:27:36;9.45;;;5.35;;
60088;SDS011;45961;53.574;55.878;2022-08-03T19:28:39;8.95;;;5.82;;
60088;SDS011;45961;53.574;55.878;2022-08-03T19:29:43;10.18;;;5.32;;
60088;SDS011;45961;53.574;55.878;2022-08-03T19:30:45;10.80;;;5.00;;
60088;SDS011;45961;53.574;55.878;2022-08-03T19:31:47;11.77;;;5.10;;
60088;SDS011;45961;53.574;55.878;2022-08-03T19:33:50;10.13;;;4.80;;
60088;SDS011;45961;53.574;55.878;2022-08-03T19:34:54;7.05;;;4.78;;
60088;SDS011;45961;53.574;55.878;2022-08-03T19:35:56;9.45;;;4.35;;
60088;SDS011;45961;53.574;55.878;2022-08-03T19:36:57;7.53;;;3.95;;
60088;SDS011;45961;53.574;55.878;2022-08-03T19:37:58;7.25;;;4.28;;
60088;SDS011;45961;53.574;55.878;2022-08-03T19:40:02;6.32;;;3.78;;
60088;SDS011;45961;53.574;55.878;2022-08-03T19:41:04;9.52;;;3.83;;
60088;SDS011;45961;53.574;55.878;2022-08-03T19:42:10;5.75;;;4.00;;
60088;SDS011;45961;53.574;55.878;2022-08-03T19:43:16;4.65;;;3.83;;
60088;SDS011;45961;53.574;55.878;2022-08-03T19:44:43;6.03;;;3.78;;
60088;SDS011;45961;53.574;55.878;2022-08-03T19:45:54;5.00;;;3.72;;
60088;SDS011;45961;53.574;55.878;2022-08-03T19:47:03;6.60;;;3.60;;
60088;SDS011;45961;53.574;55.878;2022-08-03T19:48:11;5.75;;;3.88;;
60088;SDS011;45961;53.574;55.878;2022-08-03T19:49:15;8.65;;;3.85;;
60088;SDS011;45961;53.574;55.878;2022-08-03T19:50:17;6.85;;;3.83;;
60088;SDS011;45961;53.574;55.878;2022-08-03T19:51:19;3.83;;;3.22;;
60088;SDS011;45961;53.574;55.878;2022-08-03T19:52:25;5.25;;;3.75;;
60088;SDS011;45961;53.574;55.878;2022-08-03T19:53:27;8.57;;;3.50;;
60088;SDS011;45961;53.574;55.878;2022-08-03T19:54:39;6.30;;;3.78;;
60088;SDS011;45961;53.574;55.878;2022-08-03T19:55:43;6.45;;;3.30;;
60088;SDS011;45961;53.574;55.878;2022-08-03T19:56:48;7.28;;;3.80;;
60088;SDS011;45961;53.574;55.878;2022-08-03T19:57:52;7.18;;;3.47;;
60088;SDS011;45961;53.574;55.878;2022-08-03T19:58:56;8.93;;;3.50;;
60088;SDS011;45961;53.574;55.878;2022-08-03T19:59:58;17.20;;;3.28;;
60088;SDS011;45961;53.574;55.878;2022-08-03T20:01:00;12.65;;;2.95;;
60088;SDS011;45961;53.574;55.878;2022-08-03T20:03:06;15.23;;;4.03;;
60088;SDS011;45961;53.574;55.878;2022-08-03T20:04:07;14.13;;;3.50;;
60088;SDS011;45961;53.574;55.878;2022-08-03T20:05:08;9.73;;;3.00;;
60088;SDS011;45961;53.574;55.878;2022-08-03T20:06:09;10.68;;;2.95;;
60088;SDS011;45961;53.574;55.878;2022-08-03T20:07:12;7.50;;;2.92;;
60088;SDS011;45961;53.574;55.878;2022-08-03T20:08:14;4.60;;;2.72;;
60088;SDS011;45961;53.574;55.878;2022-08-03T20:09:19;4.90;;;2.92;;
60088;SDS011;45961;53.574;55.878;2022-08-03T20:10:20;5.32;;;2.45;;
60088;SDS011;45961;53.574;55.878;2022-08-03T20:11:23;7.10;;;2.60;;
60088;SDS011;45961;53.574;55.878;2022-08-03T20:12:26;3.15;;;2.30;;
60088;SDS011;45961;53.574;55.878;2022-08-03T20:13:28;5.07;;;3.03;;
60088;SDS011;45961;53.574;55.878;2022-08-03T20:14:30;3.95;;;3.25;;
60088;SDS011;45961;53.574;55.878;2022-08-03T20:16:32;3.53;;;2.60;;
60088;SDS011;45961;53.574;55.878;2022-08-03T20:17:33;9.35;;;3.03;;
60088;SDS011;45961;53.574;55.878;2022-08-03T20:18:34;5.50;;;2.70;;
60088;SDS011;45961;53.574;55.878;2022-08-03T20:19:35;5.47;;;3.00;;
60088;SDS011;45961;53.574;55.878;2022-08-03T20:20:37;6.43;;;3.00;;
60088;SDS011;45961;53.574;55.878;2022-08-03T20:21:41;3.58;;;2.83;;
60088;SDS011;45961;53.574;55.878;2022-08-03T20:22:44;3.10;;;2.72;;
60088;SDS011;45961;53.574;55.878;2022-08-03T20:23:52;4.05;;;2.15;;
60088;SDS011;45961;53.574;55.878;2022-08-03T20:24:58;3.80;;;2.50;;
60088;SDS011;45961;53.574;55.878;2022-08-03T20:26:03;3.65;;;2.42;;
60088;SDS011;45961;53.574;55.878;2022-08-03T20:27:06;7.30;;;2.58;;
60088;SDS011;45961;53.574;55.878;2022-08-03T20:28:11;4.57;;;2.83;;
60088;SDS011;45961;53.574;55.878;2022-08-03T20:29:13;4.47;;;2.33;;
60088;SDS011;45961;53.574;55.878;2022-08-03T20:30:18;5.43;;;2.85;;
60088;SDS011;45961;53.574;55.878;2022-08-03T20:31:20;5.32;;;2.20;;
60088;SDS011;45961;53.574;55.878;2022-08-03T20:32:21;4.38;;;2.60;;
60088;SDS011;45961;53.574;55.878;2022-08-03T20:33:22;7.68;;;3.35;;
60088;SDS011;45961;53.574;55.878;2022-08-03T20:35:24;4.88;;;2.60;;
60088;SDS011;45961;53.574;55.878;2022-08-03T20:36:26;4.22;;;2.63;;
60088;SDS011;45961;53.574;55.878;2022-08-03T20:37:27;7.25;;;3.22;;
60088;SDS011;45961;53.574;55.878;2022-08-03T20:38:28;3.58;;;2.72;;
60088;SDS011;45961;53.574;55.878;2022-08-03T20:39:29;5.97;;;2.78;;
60088;SDS011;45961;53.574;55.878;2022-08-03T20:41:32;4.40;;;2.75;;
60088;SDS011;45961;53.574;55.878;2022-08-03T20:42:34;7.00;;;2.90;;
60088;SDS011;45961;53.574;55.878;2022-08-03T20:43:35;5.20;;;3.00;;
60088;SDS011;45961;53.574;55.878;2022-08-03T20:45:37;4.40;;;2.17;;
60088;SDS011;45961;53.574;55.878;2022-08-03T20:46:39;3.72;;;2.63;;
60088;SDS011;45961;53.574;55.878;2022-08-03T20:47:40;4.32;;;3.10;;
60088;SDS011;45961;53.574;55.878;2022-08-03T20:48:42;4.93;;;2.78;;
60088;SDS011;45961;53.574;55.878;2022-08-03T20:49:44;3.75;;;2.47;;
60088;SDS011;45961;53.574;55.878;2022-08-03T20:50:45;5.30;;;3.08;;
60088;SDS011;45961;53.574;55.878;2022-08-03T20:52:47;5.60;;;2.50;;
60088;SDS011;45961;53.574;55.878;2022-08-03T20:53:49;8.18;;;3.00;;
60088;SDS011;45961;53.574;55.878;2022-08-03T20:54:53;7.38;;;3.38;;
60088;SDS011;45961;53.574;55.878;2022-08-03T20:55:54;7.22;;;2.67;;
60088;SDS011;45961;53.574;55.878;2022-08-03T20:56:59;7.60;;;3.08;;
60088;SDS011;45961;53.574;55.878;2022-08-03T20:58:01;3.50;;;2.78;;
60088;SDS011;45961;53.574;55.878;2022-08-03T21:00:05;5.72;;;3.00;;
60088;SDS011;45961;53.574;55.878;2022-08-03T21:01:13;10.18;;;3.00;;
60088;SDS011;45961;53.574;55.878;2022-08-03T21:02:14;8.55;;;3.20;;
60088;SDS011;45961;53.574;55.878;2022-08-03T21:03:15;3.22;;;2.58;;
60088;SDS011;45961;53.574;55.878;2022-08-03T21:04:16;6.85;;;3.30;;
60088;SDS011;45961;53.574;55.878;2022-08-03T21:05:17;5.65;;;2.92;;
60088;SDS011;45961;53.574;55.878;2022-08-03T21:06:18;6.10;;;3.05;;
60088;SDS011;45961;53.574;55.878;2022-08-03T21:07:23;3.97;;;2.90;;
60088;SDS011;45961;53.574;55.878;2022-08-03T21:08:28;5.70;;;3.20;;
60088;SDS011;45961;53.574;55.878;2022-08-03T21:09:30;6.70;;;2.88;;
60088;SDS011;45961;53.574;55.878;2022-08-03T21:10:38;5.85;;;2.75;;
60088;SDS011;45961;53.574;55.878;2022-08-03T21:11:42;4.22;;;3.15;;
60088;SDS011;45961;53.574;55.878;2022-08-03T21:12:50;4.40;;;3.08;;
60088;SDS011;45961;53.574;55.878;2022-08-03T21:13:54;4.38;;;2.78;;
60088;SDS011;45961;53.574;55.878;2022-08-03T21:15:02;3.95;;;2.78;;
60088;SDS011;45961;53.574;55.878;2022-08-03T21:16:05;10.50;;;3.35;;
60088;SDS011;45961;53.574;55.878;2022-08-03T21:17:07;3.85;;;3.10;;
60088;SDS011;45961;53.574;55.878;2022-08-03T21:18:10;5.22;;;3.17;;
60088;SDS011;45961;53.574;55.878;2022-08-03T21:19:12;4.32;;;3.20;;
60088;SDS011;45961;53.574;55.878;2022-08-03T21:20:16;5.47;;;3.15;;
60088;SDS011;45961;53.574;55.878;2022-08-03T21:21:20;3.92;;;2.95;;
60088;SDS011;45961;53.574;55.878;2022-08-03T21:22:23;7.85;;;3.58;;
60088;SDS011;45961;53.574;55.878;2022-08-03T21:23:25;8.50;;;3.33;;
60088;SDS011;45961;53.574;55.878;2022-08-03T21:24:28;3.85;;;2.70;;
60088;SDS011;45961;53.574;55.878;2022-08-03T21:25:32;5.78;;;2.90;;
60088;SDS011;45961;53.574;55.878;2022-08-03T21:26:34;4.72;;;3.13;;
60088;SDS011;45961;53.574;55.878;2022-08-03T21:27:38;3.88;;;2.97;;
60088;SDS011;45961;53.574;55.878;2022-08-03T21:28:40;3.45;;;3.00;;
60088;SDS011;45961;53.574;55.878;2022-08-03T21:30:44;3.80;;;2.53;;
60088;SDS011;45961;53.574;55.878;2022-08-03T21:31:46;4.65;;;2.72;;
60088;SDS011;45961;53.574;55.878;2022-08-03T21:32:50;4.80;;;3.08;;
60088;SDS011;45961;53.574;55.878;2022-08-03T21:33:54;3.88;;;2.75;;
60088;SDS011;45961;53.574;55.878;2022-08-03T21:35:03;7.47;;;2.97;;
60088;SDS011;45961;53.574;55.878;2022-08-03T21:36:07;7.90;;;3.38;;
60088;SDS011;45961;53.574;55.878;2022-08-03T21:37:08;4.38;;;3.22;;
60088;SDS011;45961;53.574;55.878;2022-08-03T21:38:13;12.35;;;3.28;;
60088;SDS011;45961;53.574;55.878;2022-08-03T21:39:23;10.48;;;3.33;;
60088;SDS011;45961;53.574;55.878;2022-08-03T21:40:24;11.40;;;3.33;;
60088;SDS011;45961;53.574;55.878;2022-08-03T21:42:27;4.00;;;2.83;;
60088;SDS011;45961;53.574;55.878;2022-08-03T21:43:28;8.13;;;3.13;;
60088;SDS011;45961;53.574;55.878;2022-08-03T21:44:29;3.53;;;2.80;;
60088;SDS011;45961;53.574;55.878;2022-08-03T21:45:33;4.88;;;2.60;;
60088;SDS011;45961;53.574;55.878;2022-08-03T21:46:36;4.85;;;3.00;;
60088;SDS011;45961;53.574;55.878;2022-08-03T21:47:40;4.70;;;2.70;;
60088;SDS011;45961;53.574;55.878;2022-08-03T21:48:41;5.20;;;2.80;;
60088;SDS011;45961;53.574;55.878;2022-08-03T21:49:48;5.03;;;2.40;;
60088;SDS011;45961;53.574;55.878;2022-08-03T21:50:55;3.03;;;2.45;;
60088;SDS011;45961;53.574;55.878;2022-08-03T21:51:59;5.15;;;3.08;;
60088;SDS011;45961;53.574;55.878;2022-08-03T21:53:04;2.97;;;2.35;;
60088;SDS011;45961;53.574;55.878;2022-08-03T21:54:07;6.10;;;2.80;;
60088;SDS011;45961;53.574;55.878;2022-08-03T21:55:10;5.50;;;2.75;;
60088;SDS011;45961;53.574;55.878;2022-08-03T21:56:14;7.50;;;3.25;;
60088;SDS011;45961;53.574;55.878;2022-08-03T21:57:20;5.30;;;3.00;;
60088;SDS011;45961;53.574;55.878;2022-08-03T21:58:27;7.72;;;3.17;;
60088;SDS011;45961;53.574;55.878;2022-08-03T21:59:32;8.45;;;3.35;;
60088;SDS011;45961;53.574;55.878;2022-08-03T22:00:36;6.22;;;3.55;;
60088;SDS011;45961;53.574;55.878;2022-08-03T22:01:38;4.88;;;3.15;;
60088;SDS011;45961;53.574;55.878;2022-08-03T22:02:46;5.55;;;3.35;;
60088;SDS011;45961;53.574;55.878;2022-08-03T22:03:49;5.00;;;3.50;;
60088;SDS011;45961;53.574;55.878;2022-08-03T22:04:52;7.85;;;3.70;;
60088;SDS011;45961;53.574;55.878;2022-08-03T22:05:55;6.45;;;3.90;;
60088;SDS011;45961;53.574;55.878;2022-08-03T22:06:57;5.78;;;3.50;;
60088;SDS011;45961;53.574;55.878;2022-08-03T22:08:02;5.72;;;3.72;;
60088;SDS011;45961;53.574;55.878;2022-08-03T22:09:04;6.03;;;3.35;;
60088;SDS011;45961;53.574;55.878;2022-08-03T22:10:06;7.20;;;3.65;;
60088;SDS011;45961;53.574;55.878;2022-08-03T22:11:07;6.30;;;3.63;;
60088;SDS011;45961;53.574;55.878;2022-08-03T22:12:09;8.90;;;4.18;;